createdAt,value
2023-02-23T00:02:16.682Z,6.10
2023-02-23T00:07:20.441Z,6.60
2023-02-23T00:12:23.989Z,5.60
2023-02-23T00:17:30.266Z,6.37
2023-02-23T00:22:33.157Z,5.57
2023-02-23T00:27:38.551Z,8.27
2023-02-23T00:32:43.162Z,6.70
2023-02-23T00:37:48.711Z,6.67
2023-02-23T00:42:52.828Z,6.23
2023-02-23T00:47:57.636Z,6.10
2023-02-23T00:53:01.697Z,6.60
2023-02-23T00:58:04.798Z,6.80
2023-02-23T01:03:09.367Z,5.90
2023-02-23T01:08:14.443Z,5.43
2023-02-23T01:13:18.266Z,6.00
2023-02-23T01:18:22.553Z,6.33
2023-02-23T01:23:25.469Z,6.23
2023-02-23T01:28:28.375Z,5.80
2023-02-23T01:33:32.732Z,5.37
2023-02-23T01:38:36.311Z,8.10
2023-02-23T01:43:58.096Z,5.90
2023-02-23T01:49:03.896Z,5.23
2023-02-23T01:54:14.322Z,6.47
2023-02-23T01:59:19.351Z,4.93
2023-02-23T02:04:25.884Z,6.40
2023-02-23T02:09:29.258Z,5.70
2023-02-23T02:14:36.239Z,5.93
2023-02-23T02:20:14.240Z,7.47
2023-02-23T02:25:44.554Z,5.93
2023-02-23T02:31:15.566Z,6.77
2023-02-23T02:36:55.049Z,5.33
2023-02-23T02:42:10.147Z,4.47
2023-02-23T02:47:20.158Z,5.07
2023-02-23T02:52:29.418Z,7.77
2023-02-23T02:57:35.122Z,5.93
2023-02-23T03:02:58.601Z,4.77
2023-02-23T03:08:41.206Z,7.13
2023-02-23T03:14:39.231Z,4.03
2023-02-23T03:20:24.220Z,4.53
2023-02-23T03:26:13.271Z,5.03
2023-02-23T03:32:04.318Z,7.37
2023-02-23T03:37:51.207Z,5.43
2023-02-23T03:43:37.258Z,4.83
2023-02-23T03:49:22.236Z,5.63
2023-02-23T03:55:05.254Z,4.37
2023-02-23T04:00:51.238Z,4.07
2023-02-23T04:06:37.247Z,4.80
2023-02-23T04:12:22.272Z,5.13
2023-02-23T04:17:45.281Z,4.90
2023-02-23T04:23:10.298Z,6.57
2023-02-23T04:28:35.279Z,4.40
2023-02-23T04:33:58.284Z,3.90
2023-02-23T04:39:23.300Z,6.57
2023-02-23T04:44:46.298Z,3.10
2023-02-23T04:50:09.331Z,5.00
2023-02-23T04:55:36.273Z,4.20
2023-02-23T05:00:59.394Z,5.90
2023-02-23T05:06:22.296Z,3.73
2023-02-23T05:11:47.317Z,5.07
2023-02-23T05:17:10.357Z,5.00
2023-02-23T05:22:33.346Z,4.30
2023-02-23T05:27:58.282Z,4.33
2023-02-23T05:33:22.299Z,4.43
2023-02-23T05:38:45.301Z,4.83
2023-02-23T05:44:10.355Z,3.63
2023-02-23T05:49:33.306Z,6.27
2023-02-23T05:54:56.350Z,6.10
2023-02-23T06:00:23.311Z,4.43
2023-02-23T06:05:46.316Z,5.17
2023-02-23T06:11:09.319Z,6.50
2023-02-23T06:16:34.427Z,4.73
2023-02-23T06:21:57.361Z,4.37
2023-02-23T06:27:21.347Z,5.77
2023-02-23T06:32:46.335Z,4.77
2023-02-23T06:38:11.347Z,4.67
2023-02-23T06:43:35.352Z,5.67
2023-02-23T06:49:02.395Z,4.93
2023-02-23T06:54:25.376Z,5.87
2023-02-23T06:59:49.375Z,5.63
2023-02-23T07:05:14.362Z,4.60
2023-02-23T07:10:37.360Z,3.37
2023-02-23T07:16:00.380Z,4.07
2023-02-23T07:21:25.378Z,4.40
2023-02-23T07:26:50.378Z,5.07
2023-02-23T07:32:13.438Z,4.17
2023-02-23T07:37:38.346Z,3.97
2023-02-23T07:43:02.370Z,4.50
2023-02-23T07:48:25.393Z,4.03
2023-02-23T07:53:50.384Z,5.00
2023-02-23T07:59:13.384Z,4.77
2023-02-23T08:04:36.462Z,4.63
2023-02-23T08:10:02.388Z,5.87
2023-02-23T08:15:25.396Z,8.27
2023-02-23T08:20:48.414Z,5.37
2023-02-23T08:26:13.422Z,4.20
2023-02-23T08:31:37.558Z,5.13
2023-02-23T08:37:01.443Z,4.20
2023-02-23T08:42:26.428Z,4.90
2023-02-23T08:47:49.436Z,4.73
2023-02-23T08:53:12.437Z,5.00
2023-02-23T08:58:38.465Z,4.33
2023-02-23T09:04:01.429Z,6.57
2023-02-23T09:09:24.463Z,5.00
2023-02-23T09:14:49.420Z,6.00
2023-02-23T09:20:14.480Z,7.47
2023-02-23T09:25:38.455Z,6.60
2023-02-23T09:31:03.534Z,4.70
2023-02-23T09:36:27.441Z,4.83
2023-02-23T09:42:17.741Z,4.87
2023-02-23T09:47:48.430Z,3.63
2023-02-23T09:53:18.469Z,5.10
2023-02-23T09:58:43.454Z,5.97
2023-02-23T10:04:13.451Z,4.20
2023-02-23T10:09:42.492Z,4.80
2023-02-23T10:15:23.487Z,7.43
2023-02-23T10:20:58.475Z,4.93
2023-02-23T10:26:25.481Z,4.77
2023-02-23T10:31:55.626Z,4.87
2023-02-23T10:37:22.480Z,4.97
2023-02-23T10:42:45.494Z,5.87
2023-02-23T10:48:13.602Z,4.37
2023-02-23T10:53:42.481Z,4.83
2023-02-23T10:59:06.474Z,4.70
2023-02-23T11:04:35.539Z,5.67
2023-02-23T11:10:00.505Z,4.57
2023-02-23T11:15:50.269Z,4.93
2023-02-23T11:21:18.979Z,4.77
2023-02-23T11:26:51.539Z,4.50
2023-02-23T11:32:19.599Z,5.57
2023-02-23T11:37:45.520Z,5.43
2023-02-23T11:43:20.581Z,5.17
2023-02-23T11:48:49.567Z,4.53
2023-02-23T11:54:16.579Z,4.87
2023-02-23T11:59:45.786Z,5.63
2023-02-23T12:05:14.592Z,5.50
2023-02-23T12:10:41.563Z,5.00
2023-02-23T12:16:09.591Z,6.70
2023-02-23T12:21:47.554Z,5.50
2023-02-23T12:27:19.613Z,5.07
2023-02-23T12:32:57.548Z,6.47
2023-02-23T12:38:33.579Z,5.53
2023-02-23T12:44:02.560Z,5.00
2023-02-23T12:49:35.558Z,4.80
2023-02-23T12:54:59.562Z,5.10
2023-02-23T13:00:43.591Z,4.30
2023-02-23T13:06:16.575Z,6.37
2023-02-23T13:11:57.566Z,6.87
2023-02-23T13:17:27.615Z,7.83
2023-02-23T13:22:58.590Z,6.40
2023-02-23T13:28:28.581Z,6.37
2023-02-23T13:33:51.589Z,4.97
2023-02-23T13:39:38.585Z,6.07
2023-02-23T13:45:14.610Z,6.80
2023-02-23T13:50:45.594Z,5.97
2023-02-23T13:56:13.605Z,6.93
2023-02-23T14:01:41.748Z,5.87
2023-02-23T14:07:09.616Z,7.87
2023-02-23T14:12:39.680Z,6.17
2023-02-23T14:18:05.062Z,6.93
2023-02-23T14:23:47.790Z,5.17
2023-02-23T14:29:33.872Z,5.77
2023-02-23T14:35:03.612Z,6.27
2023-02-23T14:40:31.784Z,5.70
2023-02-23T14:45:56.634Z,6.90
2023-02-23T14:51:28.981Z,6.10
2023-02-23T14:57:00.717Z,5.20
2023-02-23T15:02:28.702Z,5.87
2023-02-23T15:07:55.711Z,6.67
2023-02-23T21:16:15.748Z,8.10
2023-02-23T21:21:22.887Z,9.30
2023-02-23T21:26:26.013Z,8.07
2023-02-23T21:31:30.500Z,8.37
2023-02-23T21:36:34.321Z,9.10
2023-02-23T21:41:37.856Z,9.53
2023-02-23T21:46:42.166Z,9.33
2023-02-23T21:51:45.293Z,7.50
2023-02-23T21:56:48.200Z,7.80
2023-02-23T22:01:52.739Z,9.40
2023-02-23T22:06:55.692Z,8.93
2023-02-23T22:11:58.783Z,7.73
2023-02-23T22:17:03.896Z,7.53
2023-02-23T22:22:06.920Z,8.00
2023-02-23T22:27:10.361Z,8.47
2023-02-23T22:32:14.918Z,7.30
2023-02-23T22:37:21.932Z,9.00
2023-02-23T22:42:29.038Z,7.87
2023-02-23T22:47:34.635Z,7.67
2023-02-23T22:52:37.541Z,8.13
2023-02-23T22:57:40.815Z,6.73
2023-02-23T23:02:45.380Z,7.90
2023-02-23T23:07:49.052Z,7.57
2023-02-23T23:12:53.006Z,8.80
2023-02-23T23:17:57.235Z,6.80
2023-02-23T23:23:00.128Z,6.67
2023-02-23T23:28:04.738Z,6.10
2023-02-23T23:33:09.537Z,7.23
2023-02-23T23:38:14.625Z,6.23
2023-02-23T23:43:20.296Z,5.93
2023-02-23T23:48:25.378Z,6.60
2023-02-23T23:53:28.335Z,6.37
2023-02-23T23:58:31.347Z,7.37
